HAZ2204 ZGGG-ZSHC
Flight info
| Callsign | HAZ2204 |
|---|---|
| Flight time | N/A |
| Altitude | 37100 |
| Route | BOVMA9 BOVMA W41 OMDUP G471 EGEDA/K0854S1160 G471 PLT/K0856S1130 A599 ELNEX ELNEX13 |
| Aircraft | A20N/M-SDE2E3FGHIRWXY/LB1 |
Departure
| Time | 2026-05-06 01:50 |
|---|---|
| Airport | Guangzhou Baiyun International Airport (ZGGG) |
Arrival
| Time | N/A |
|---|---|
| Airport | Hangzhou Xiaoshan International Airport (ZSHC) |
| Time | Latitude | Longitude | Altitude | Speed | Heading |
|---|---|---|---|---|---|
| 2026-05-06 01:43 | 23.38039 | 113.30459 | 54 ft | 13 kts | 193° |
| 2026-05-06 01:43 | 23.37943 | 113.30434 | 54 ft | 14 kts | 192° |
| 2026-05-06 01:44 | 23.37842 | 113.30411 | 54 ft | 14 kts | 192° |
| 2026-05-06 01:44 | 23.37740 | 113.30377 | 54 ft | 15 kts | 195° |
| 2026-05-06 01:44 | 23.37634 | 113.30352 | 54 ft | 15 kts | 171° |
| 2026-05-06 01:44 | 23.37602 | 113.30415 | 54 ft | 0 kts | 102° |
| 2026-05-06 01:47 | 23.37602 | 113.30416 | 54 ft | 0 kts | 101° |
| 2026-05-06 01:47 | 23.37600 | 113.30428 | 54 ft | 2 kts | 101° |
| 2026-05-06 01:47 | 23.37596 | 113.30450 | 54 ft | 3 kts | 100° |
| 2026-05-06 01:48 | 23.37591 | 113.30480 | 54 ft | 4 kts | 100° |
| 2026-05-06 01:48 | 23.37584 | 113.30521 | 54 ft | 5 kts | 90° |
| 2026-05-06 01:48 | 23.37615 | 113.30542 | 54 ft | 6 kts | 17° |
| 2026-05-06 01:48 | 23.37664 | 113.30550 | 54 ft | 7 kts | 11° |
| 2026-05-06 01:49 | 23.37721 | 113.30570 | 54 ft | 14 kts | 18° |
| 2026-05-06 01:49 | 23.38035 | 113.30660 | 54 ft | 83 kts | 14° |
| 2026-05-06 01:49 | 23.38839 | 113.30876 | 54 ft | 146 kts | 15° |
| 2026-05-06 01:49 | 23.39956 | 113.31183 | 314 ft | 172 kts | 15° |
| 2026-05-06 01:50 | 23.41121 | 113.31486 | 977 ft | 171 kts | 16° |
| 2026-05-06 01:50 | 23.42238 | 113.31808 | 1799 ft | 164 kts | 17° |
| 2026-05-06 01:50 | 23.43376 | 113.32152 | 2322 ft | 177 kts | 17° |
| 2026-05-06 01:50 | 23.44625 | 113.32531 | 2788 ft | 193 kts | 17° |
| 2026-05-06 01:51 | 23.45994 | 113.32944 | 3260 ft | 210 kts | 17° |
| 2026-05-06 01:51 | 23.47465 | 113.33388 | 3751 ft | 228 kts | 16° |
| 2026-05-06 01:51 | 23.49093 | 113.33877 | 4192 ft | 252 kts | 15° |
| 2026-05-06 01:51 | 23.50822 | 113.34394 | 4991 ft | 259 kts | 15° |
| 2026-05-06 01:52 | 23.52579 | 113.34919 | 5865 ft | 264 kts | 14° |
| 2026-05-06 01:52 | 23.54389 | 113.35459 | 6726 ft | 268 kts | 14° |
| 2026-05-06 01:52 | 23.56209 | 113.35944 | 7602 ft | 270 kts | 9° |
| 2026-05-06 01:52 | 23.58076 | 113.36313 | 8467 ft | 272 kts | 7° |
| 2026-05-06 01:53 | 23.59939 | 113.36659 | 9277 ft | 274 kts | 6° |
| 2026-05-06 01:53 | 23.61787 | 113.37216 | 10037 ft | 281 kts | 27° |
| 2026-05-06 01:53 | 23.63248 | 113.38661 | 10744 ft | 290 kts | 56° |
| 2026-05-06 01:53 | 23.63988 | 113.40757 | 11194 ft | 306 kts | 77° |
| 2026-05-06 01:54 | 23.64436 | 113.43115 | 11569 ft | 323 kts | 78° |
| 2026-05-06 01:54 | 23.64905 | 113.45597 | 11907 ft | 341 kts | 77° |
| 2026-05-06 01:54 | 23.65418 | 113.48193 | 12210 ft | 359 kts | 77° |
| 2026-05-06 01:54 | 23.65973 | 113.50898 | 12494 ft | 376 kts | 76° |
| 2026-05-06 01:55 | 23.66577 | 113.53783 | 12837 ft | 390 kts | 76° |
| 2026-05-06 01:55 | 23.67188 | 113.56691 | 13397 ft | 396 kts | 76° |
| 2026-05-06 01:55 | 23.67805 | 113.59619 | 14022 ft | 399 kts | 76° |
| 2026-05-06 01:55 | 23.68438 | 113.62620 | 14644 ft | 402 kts | 76° |
| 2026-05-06 01:56 | 23.69075 | 113.65640 | 15242 ft | 404 kts | 76° |
| 2026-05-06 01:56 | 23.69737 | 113.68782 | 15834 ft | 407 kts | 77° |
| 2026-05-06 01:56 | 23.70382 | 113.71852 | 16372 ft | 410 kts | 77° |
| 2026-05-06 01:56 | 23.71020 | 113.74892 | 16889 ft | 413 kts | 77° |
| 2026-05-06 01:57 | 23.71663 | 113.77966 | 17396 ft | 416 kts | 77° |
| 2026-05-06 01:57 | 23.72311 | 113.81065 | 17912 ft | 419 kts | 77° |
| 2026-05-06 01:57 | 23.72963 | 113.84181 | 18428 ft | 421 kts | 77° |
| 2026-05-06 01:57 | 23.73615 | 113.87307 | 18909 ft | 424 kts | 77° |
| 2026-05-06 01:58 | 23.74275 | 113.90477 | 19398 ft | 427 kts | 77° |
| 2026-05-06 01:58 | 23.74999 | 113.93674 | 19873 ft | 430 kts | 71° |
| 2026-05-06 01:58 | 23.76431 | 113.96520 | 20293 ft | 431 kts | 49° |
| 2026-05-06 01:58 | 23.78763 | 113.98595 | 20768 ft | 430 kts | 26° |
| 2026-05-06 01:59 | 23.81556 | 113.99782 | 21285 ft | 429 kts | 17° |
| 2026-05-06 01:59 | 23.84389 | 114.00834 | 21717 ft | 433 kts | 18° |
| 2026-05-06 01:59 | 23.87264 | 114.01946 | 22148 ft | 436 kts | 19° |
| 2026-05-06 01:59 | 23.90133 | 114.03108 | 22593 ft | 439 kts | 19° |
| 2026-05-06 02:00 | 23.93029 | 114.04318 | 23047 ft | 441 kts | 20° |
| 2026-05-06 02:00 | 23.95890 | 114.05536 | 23482 ft | 443 kts | 20° |
| 2026-05-06 02:00 | 23.98820 | 114.06797 | 23913 ft | 446 kts | 20° |
| 2026-05-06 02:00 | 24.01703 | 114.08048 | 24327 ft | 449 kts | 20° |
| 2026-05-06 02:01 | 24.04626 | 114.09319 | 24730 ft | 451 kts | 20° |
| 2026-05-06 02:01 | 24.07567 | 114.10602 | 25144 ft | 454 kts | 20° |
| 2026-05-06 02:01 | 24.10536 | 114.11897 | 25524 ft | 456 kts | 20° |
| 2026-05-06 02:01 | 24.13539 | 114.13210 | 25903 ft | 459 kts | 20° |
| 2026-05-06 02:02 | 24.16503 | 114.14507 | 26273 ft | 461 kts | 20° |
| 2026-05-06 02:02 | 24.19509 | 114.15823 | 26630 ft | 464 kts | 20° |
| 2026-05-06 02:02 | 24.22517 | 114.17139 | 26972 ft | 466 kts | 20° |
| 2026-05-06 02:02 | 24.25546 | 114.18467 | 27306 ft | 468 kts | 19° |
| 2026-05-06 02:03 | 24.28589 | 114.19801 | 27635 ft | 471 kts | 19° |
| 2026-05-06 02:03 | 24.31659 | 114.21147 | 27955 ft | 473 kts | 19° |
| 2026-05-06 02:03 | 24.34747 | 114.22503 | 28262 ft | 475 kts | 19° |
| 2026-05-06 02:03 | 24.37805 | 114.23844 | 28575 ft | 476 kts | 19° |
| 2026-05-06 02:04 | 24.40905 | 114.25207 | 28988 ft | 475 kts | 19° |
| 2026-05-06 02:04 | 24.43961 | 114.26553 | 29447 ft | 473 kts | 19° |
| 2026-05-06 02:04 | 24.47041 | 114.27911 | 29890 ft | 471 kts | 19° |
| 2026-05-06 02:04 | 24.50110 | 114.29264 | 30305 ft | 471 kts | 18° |
| 2026-05-06 02:05 | 24.53146 | 114.30601 | 30728 ft | 470 kts | 18° |
| 2026-05-06 02:05 | 24.56145 | 114.31923 | 31150 ft | 468 kts | 18° |
| 2026-05-06 02:05 | 24.59188 | 114.33265 | 31564 ft | 467 kts | 18° |
| 2026-05-06 02:05 | 24.62237 | 114.34609 | 31966 ft | 466 kts | 17° |
| 2026-05-06 02:06 | 24.65227 | 114.35928 | 32355 ft | 465 kts | 17° |
| 2026-05-06 02:06 | 24.68259 | 114.37268 | 32737 ft | 464 kts | 17° |
| 2026-05-06 02:06 | 24.71263 | 114.38594 | 33108 ft | 463 kts | 17° |
| 2026-05-06 02:06 | 24.74253 | 114.39913 | 33465 ft | 462 kts | 17° |
| 2026-05-06 02:07 | 24.77213 | 114.41222 | 33806 ft | 461 kts | 17° |
| 2026-05-06 02:07 | 24.80199 | 114.42542 | 34159 ft | 460 kts | 17° |
| 2026-05-06 02:07 | 24.83189 | 114.43865 | 34520 ft | 458 kts | 17° |
| 2026-05-06 02:07 | 24.86151 | 114.45177 | 34867 ft | 457 kts | 16° |
| 2026-05-06 02:08 | 24.89098 | 114.46484 | 35220 ft | 455 kts | 16° |
| 2026-05-06 02:08 | 24.92028 | 114.47782 | 35528 ft | 453 kts | 16° |
| 2026-05-06 02:08 | 24.94988 | 114.49095 | 35758 ft | 454 kts | 16° |
| 2026-05-06 02:08 | 24.97929 | 114.50399 | 35936 ft | 455 kts | 16° |
| 2026-05-06 02:09 | 25.00843 | 114.51691 | 36105 ft | 456 kts | 16° |
| 2026-05-06 02:09 | 25.03820 | 114.53012 | 36293 ft | 456 kts | 16° |
| 2026-05-06 02:09 | 25.06803 | 114.54340 | 36475 ft | 457 kts | 16° |
| 2026-05-06 02:09 | 25.09774 | 114.55660 | 36626 ft | 458 kts | 16° |
| 2026-05-06 02:10 | 25.12783 | 114.56998 | 36760 ft | 459 kts | 16° |
| 2026-05-06 02:10 | 25.15775 | 114.58330 | 36914 ft | 459 kts | 16° |
| 2026-05-06 02:10 | 25.18760 | 114.59660 | 37054 ft | 460 kts | 16° |
| 2026-05-06 02:10 | 25.21720 | 114.60978 | 37095 ft | 461 kts | 16° |
| 2026-05-06 02:11 | 25.27687 | 114.63641 | 37091 ft | 460 kts | 16° |
| 2026-05-06 02:11 | 25.33663 | 114.66309 | 37082 ft | 461 kts | 17° |
| 2026-05-06 02:12 | 25.39624 | 114.68974 | 37079 ft | 460 kts | 17° |
| 2026-05-06 02:12 | 25.45632 | 114.71664 | 37077 ft | 460 kts | 17° |
| 2026-05-06 02:13 | 25.51655 | 114.74364 | 37084 ft | 461 kts | 16° |
| 2026-05-06 02:13 | 25.57638 | 114.77048 | 37090 ft | 461 kts | 17° |
| 2026-05-06 02:14 | 25.63680 | 114.79764 | 37088 ft | 461 kts | 17° |
| 2026-05-06 02:14 | 25.69643 | 114.82447 | 37091 ft | 460 kts | 16° |
| 2026-05-06 02:15 | 25.75602 | 114.85398 | 37094 ft | 465 kts | 22° |
| 2026-05-06 02:15 | 25.81181 | 114.89223 | 37100 ft | 471 kts | 31° |
| 2026-05-06 02:16 | 25.86231 | 114.93897 | 37102 ft | 477 kts | 39° |
| 2026-05-06 02:16 | 25.90870 | 114.99274 | 37097 ft | 480 kts | 42° |
| 2026-05-06 02:17 | 25.95467 | 115.04771 | 37099 ft | 479 kts | 42° |
| 2026-05-06 02:17 | 26.00052 | 115.10244 | 37095 ft | 480 kts | 42° |
| 2026-05-06 02:18 | 26.04617 | 115.15681 | 37090 ft | 480 kts | 42° |
| 2026-05-06 02:18 | 26.09229 | 115.21176 | 37085 ft | 480 kts | 42° |
| 2026-05-06 02:19 | 26.13789 | 115.26616 | 37078 ft | 480 kts | 41° |
| 2026-05-06 02:19 | 26.18340 | 115.32049 | 37080 ft | 479 kts | 42° |
| 2026-05-06 02:20 | 26.25178 | 115.40227 | 37087 ft | 480 kts | 41° |
| 2026-05-06 02:21 | 26.29729 | 115.45679 | 37093 ft | 478 kts | 41° |
| 2026-05-06 02:21 | 26.34309 | 115.51170 | 37099 ft | 479 kts | 41° |
| 2026-05-06 02:22 | 26.38848 | 115.56621 | 37097 ft | 479 kts | 41° |
| 2026-05-06 02:22 | 26.43373 | 115.62060 | 37092 ft | 479 kts | 41° |
| 2026-05-06 02:23 | 26.47923 | 115.67541 | 37087 ft | 479 kts | 42° |
| 2026-05-06 02:23 | 26.52474 | 115.73025 | 37091 ft | 479 kts | 42° |
| 2026-05-06 02:24 | 26.57023 | 115.78515 | 37091 ft | 479 kts | 41° |
| 2026-05-06 02:24 | 26.61548 | 115.83982 | 37097 ft | 479 kts | 42° |
| 2026-05-06 02:25 | 26.66098 | 115.89487 | 37100 ft | 478 kts | 41° |
| 2026-05-06 02:25 | 26.70643 | 115.94994 | 37095 ft | 478 kts | 42° |
| 2026-05-06 02:26 | 26.75140 | 116.00448 | 37096 ft | 478 kts | 42° |
| 2026-05-06 02:26 | 26.79660 | 116.05941 | 37095 ft | 478 kts | 41° |
| 2026-05-06 02:27 | 26.84160 | 116.11417 | 37099 ft | 478 kts | 41° |
| 2026-05-06 02:27 | 26.88677 | 116.16921 | 37107 ft | 477 kts | 41° |
| 2026-05-06 02:28 | 26.93192 | 116.22417 | 37114 ft | 475 kts | 41° |
| 2026-05-06 02:28 | 26.97685 | 116.27819 | 37123 ft | 475 kts | 41° |
| 2026-05-06 02:29 | 27.02222 | 116.33281 | 37128 ft | 475 kts | 41° |
| 2026-05-06 02:29 | 27.06738 | 116.38733 | 37124 ft | 474 kts | 41° |
| 2026-05-06 02:30 | 27.11238 | 116.44178 | 37121 ft | 475 kts | 41° |
| 2026-05-06 02:30 | 27.15732 | 116.49623 | 37112 ft | 474 kts | 41° |
| 2026-05-06 02:31 | 27.20220 | 116.55068 | 37093 ft | 473 kts | 41° |
| 2026-05-06 02:31 | 27.24776 | 116.60437 | 37097 ft | 472 kts | 40° |
| 2026-05-06 02:32 | 27.29370 | 116.65751 | 37098 ft | 471 kts | 40° |
| 2026-05-06 02:32 | 27.33939 | 116.71060 | 37102 ft | 472 kts | 40° |